Kelibia, Tunisia
Current Conditions -  °F | °C
As of 8:00 AM on Sunday 23 Nov 2014 (Local Time) from DTTL Reporting Station
Clear Clear  
Wind Chill: 68°   Ceiling: Unl
Heat Index: 68°   Visibility: NA
Dew Point: 64°   Wind: 6mph
Humidity: 88%   Direction: 160°SSE
Pressure: 30.24"   Gusts: NA
Location:  36.85°N, 11.09°E
Report Text: DTTL 230700Z AUTO 16005KT 110V220 NCD 20/18 Q1024
Loading
Personal Weather Stations






























Interactive Weather Map New forecast layout! Learn more

10-Day Weather Forecast

Advertisements
Track Severe Weather on mobile